sensor_id;sensor_type;location;lat;lon;timestamp;temperature;humidity
72814;DHT22;60945;48.516;-2.768;2023-03-17T00:01:35;15.00;76.00
72814;DHT22;60945;48.516;-2.768;2023-03-17T00:04:01;14.90;75.60
72814;DHT22;60945;48.516;-2.768;2023-03-17T00:06:32;14.50;76.80
72814;DHT22;60945;48.516;-2.768;2023-03-17T00:08:58;14.70;76.90
72814;DHT22;60945;48.516;-2.768;2023-03-17T00:11:25;14.80;76.50
72814;DHT22;60945;48.516;-2.768;2023-03-17T00:13:51;14.80;76.50
72814;DHT22;60945;48.516;-2.768;2023-03-17T00:16:27;14.60;77.00
72814;DHT22;60945;48.516;-2.768;2023-03-17T00:18:55;14.60;76.80
72814;DHT22;60945;48.516;-2.768;2023-03-17T00:21:30;14.60;76.70
72814;DHT22;60945;48.516;-2.768;2023-03-17T00:23:57;14.50;77.00
72814;DHT22;60945;48.516;-2.768;2023-03-17T00:26:24;14.60;76.80
72814;DHT22;60945;48.516;-2.768;2023-03-17T00:28:50;14.60;76.70
72814;DHT22;60945;48.516;-2.768;2023-03-17T00:31:23;14.60;76.70
72814;DHT22;60945;48.516;-2.768;2023-03-17T00:33:50;14.40;77.30
72814;DHT22;60945;48.516;-2.768;2023-03-17T00:36:32;14.50;77.00
72814;DHT22;60945;48.516;-2.768;2023-03-17T00:38:58;14.40;77.30
72814;DHT22;60945;48.516;-2.768;2023-03-17T00:41:25;14.20;77.70
72814;DHT22;60945;48.516;-2.768;2023-03-17T00:43:51;14.30;77.70
72814;DHT22;60945;48.516;-2.768;2023-03-17T00:46:29;14.40;77.80
72814;DHT22;60945;48.516;-2.768;2023-03-17T00:49:01;14.40;77.20
72814;DHT22;60945;48.516;-2.768;2023-03-17T00:51:27;14.20;77.90
72814;DHT22;60945;48.516;-2.768;2023-03-17T00:53:54;14.20;78.40
72814;DHT22;60945;48.516;-2.768;2023-03-17T00:56:20;14.00;79.30
72814;DHT22;60945;48.516;-2.768;2023-03-17T00:58:47;14.00;79.40
72814;DHT22;60945;48.516;-2.768;2023-03-17T01:01:14;14.10;79.20
72814;DHT22;60945;48.516;-2.768;2023-03-17T01:03:40;14.10;78.40
72814;DHT22;60945;48.516;-2.768;2023-03-17T01:06:09;14.30;78.50
72814;DHT22;60945;48.516;-2.768;2023-03-17T01:08:36;14.40;77.40
72814;DHT22;60945;48.516;-2.768;2023-03-17T01:11:03;14.50;77.20
72814;DHT22;60945;48.516;-2.768;2023-03-17T01:13:28;14.70;76.40
72814;DHT22;60945;48.516;-2.768;2023-03-17T01:15:54;14.70;75.90
72814;DHT22;60945;48.516;-2.768;2023-03-17T01:18:22;14.50;76.60
72814;DHT22;60945;48.516;-2.768;2023-03-17T01:20:48;14.50;76.50
72814;DHT22;60945;48.516;-2.768;2023-03-17T01:23:14;14.30;77.30
72814;DHT22;60945;48.516;-2.768;2023-03-17T01:25:41;14.10;78.50
72814;DHT22;60945;48.516;-2.768;2023-03-17T01:28:09;14.20;77.90
72814;DHT22;60945;48.516;-2.768;2023-03-17T01:30:38;14.20;77.90
72814;DHT22;60945;48.516;-2.768;2023-03-17T01:33:06;14.20;77.60
72814;DHT22;60945;48.516;-2.768;2023-03-17T01:35:34;14.20;78.20
72814;DHT22;60945;48.516;-2.768;2023-03-17T01:38:01;14.30;77.80
72814;DHT22;60945;48.516;-2.768;2023-03-17T01:40:30;14.60;76.80
72814;DHT22;60945;48.516;-2.768;2023-03-17T01:43:16;14.50;76.80
72814;DHT22;60945;48.516;-2.768;2023-03-17T01:51:40;14.50;76.60
72814;DHT22;60945;48.516;-2.768;2023-03-17T01:54:13;14.60;75.90
72814;DHT22;60945;48.516;-2.768;2023-03-17T01:56:45;14.50;75.90
72814;DHT22;60945;48.516;-2.768;2023-03-17T01:59:18;14.40;77.00
72814;DHT22;60945;48.516;-2.768;2023-03-17T02:01:47;14.40;76.40
72814;DHT22;60945;48.516;-2.768;2023-03-17T02:04:16;14.30;77.00
72814;DHT22;60945;48.516;-2.768;2023-03-17T02:06:42;14.20;77.30
72814;DHT22;60945;48.516;-2.768;2023-03-17T02:09:09;14.30;77.20
72814;DHT22;60945;48.516;-2.768;2023-03-17T02:11:35;14.30;76.90
72814;DHT22;60945;48.516;-2.768;2023-03-17T02:14:00;14.10;77.90
72814;DHT22;60945;48.516;-2.768;2023-03-17T02:16:29;14.10;78.10
72814;DHT22;60945;48.516;-2.768;2023-03-17T02:18:54;14.10;78.00
72814;DHT22;60945;48.516;-2.768;2023-03-17T02:24:04;14.10;78.00
72814;DHT22;60945;48.516;-2.768;2023-03-17T02:26:32;14.30;77.60
72814;DHT22;60945;48.516;-2.768;2023-03-17T02:28:59;14.40;77.20
72814;DHT22;60945;48.516;-2.768;2023-03-17T02:31:26;14.40;77.10
72814;DHT22;60945;48.516;-2.768;2023-03-17T02:33:52;14.40;77.30
72814;DHT22;60945;48.516;-2.768;2023-03-17T02:36:19;14.20;77.90
72814;DHT22;60945;48.516;-2.768;2023-03-17T02:38:44;14.20;77.80
72814;DHT22;60945;48.516;-2.768;2023-03-17T02:41:10;14.00;79.30
72814;DHT22;60945;48.516;-2.768;2023-03-17T02:43:36;14.10;78.70
72814;DHT22;60945;48.516;-2.768;2023-03-17T02:46:02;14.00;79.00
72814;DHT22;60945;48.516;-2.768;2023-03-17T02:48:28;14.10;78.80
72814;DHT22;60945;48.516;-2.768;2023-03-17T02:50:54;14.10;79.20
72814;DHT22;60945;48.516;-2.768;2023-03-17T02:53:20;13.80;79.20
72814;DHT22;60945;48.516;-2.768;2023-03-17T02:55:45;13.70;80.60
72814;DHT22;60945;48.516;-2.768;2023-03-17T02:58:11;13.90;79.90
72814;DHT22;60945;48.516;-2.768;2023-03-17T03:00:37;14.20;78.50
72814;DHT22;60945;48.516;-2.768;2023-03-17T03:03:03;14.30;78.00
72814;DHT22;60945;48.516;-2.768;2023-03-17T03:05:29;14.40;77.70
72814;DHT22;60945;48.516;-2.768;2023-03-17T03:07:54;14.60;77.10
72814;DHT22;60945;48.516;-2.768;2023-03-17T03:10:20;14.60;76.60
72814;DHT22;60945;48.516;-2.768;2023-03-17T03:12:46;14.70;75.70
72814;DHT22;60945;48.516;-2.768;2023-03-17T03:15:12;14.40;76.80
72814;DHT22;60945;48.516;-2.768;2023-03-17T03:17:38;14.20;77.90
72814;DHT22;60945;48.516;-2.768;2023-03-17T03:20:04;14.30;77.90
72814;DHT22;60945;48.516;-2.768;2023-03-17T03:22:30;14.00;78.70
72814;DHT22;60945;48.516;-2.768;2023-03-17T03:24:56;14.20;78.40
72814;DHT22;60945;48.516;-2.768;2023-03-17T03:27:22;14.20;77.70
72814;DHT22;60945;48.516;-2.768;2023-03-17T03:29:47;14.20;78.00
72814;DHT22;60945;48.516;-2.768;2023-03-17T03:32:17;14.10;78.30
72814;DHT22;60945;48.516;-2.768;2023-03-17T03:34:42;14.00;78.60
72814;DHT22;60945;48.516;-2.768;2023-03-17T03:37:08;14.10;78.40
72814;DHT22;60945;48.516;-2.768;2023-03-17T03:39:34;14.00;78.50
72814;DHT22;60945;48.516;-2.768;2023-03-17T03:41:59;14.00;78.70
72814;DHT22;60945;48.516;-2.768;2023-03-17T03:44:25;14.00;78.60
72814;DHT22;60945;48.516;-2.768;2023-03-17T03:46:52;14.00;78.50
72814;DHT22;60945;48.516;-2.768;2023-03-17T03:49:19;14.00;78.60
72814;DHT22;60945;48.516;-2.768;2023-03-17T03:51:45;13.90;78.90
72814;DHT22;60945;48.516;-2.768;2023-03-17T03:54:11;13.90;79.10
72814;DHT22;60945;48.516;-2.768;2023-03-17T03:56:38;13.90;78.80
72814;DHT22;60945;48.516;-2.768;2023-03-17T03:59:03;13.80;79.50
72814;DHT22;60945;48.516;-2.768;2023-03-17T04:01:29;14.10;78.90
72814;DHT22;60945;48.516;-2.768;2023-03-17T04:03:56;14.00;78.60
72814;DHT22;60945;48.516;-2.768;2023-03-17T04:06:22;14.00;79.10
72814;DHT22;60945;48.516;-2.768;2023-03-17T04:08:47;13.90;79.30
72814;DHT22;60945;48.516;-2.768;2023-03-17T04:11:13;13.80;79.70
72814;DHT22;60945;48.516;-2.768;2023-03-17T04:13:39;13.80;79.80
72814;DHT22;60945;48.516;-2.768;2023-03-17T04:16:05;13.90;79.40
72814;DHT22;60945;48.516;-2.768;2023-03-17T04:18:30;13.70;79.40
72814;DHT22;60945;48.516;-2.768;2023-03-17T04:20:56;13.80;80.20
72814;DHT22;60945;48.516;-2.768;2023-03-17T04:23:22;13.90;79.30
72814;DHT22;60945;48.516;-2.768;2023-03-17T04:25:51;13.70;79.90
72814;DHT22;60945;48.516;-2.768;2023-03-17T04:28:17;13.90;79.50
72814;DHT22;60945;48.516;-2.768;2023-03-17T04:30:46;14.10;79.00
72814;DHT22;60945;48.516;-2.768;2023-03-17T04:33:12;14.00;79.00
72814;DHT22;60945;48.516;-2.768;2023-03-17T04:35:38;14.00;78.30
72814;DHT22;60945;48.516;-2.768;2023-03-17T04:38:03;13.70;79.60
72814;DHT22;60945;48.516;-2.768;2023-03-17T04:40:29;13.80;79.70
72814;DHT22;60945;48.516;-2.768;2023-03-17T04:42:55;13.80;79.50
72814;DHT22;60945;48.516;-2.768;2023-03-17T04:45:21;13.90;78.50
72814;DHT22;60945;48.516;-2.768;2023-03-17T04:47:46;13.80;78.80
72814;DHT22;60945;48.516;-2.768;2023-03-17T04:50:13;13.80;79.00
72814;DHT22;60945;48.516;-2.768;2023-03-17T04:52:39;13.80;78.80
72814;DHT22;60945;48.516;-2.768;2023-03-17T04:55:06;13.70;79.20
72814;DHT22;60945;48.516;-2.768;2023-03-17T04:57:36;13.70;79.60
72814;DHT22;60945;48.516;-2.768;2023-03-17T05:00:04;13.80;79.00
72814;DHT22;60945;48.516;-2.768;2023-03-17T05:02:30;13.80;79.70
72814;DHT22;60945;48.516;-2.768;2023-03-17T05:04:55;13.80;79.60
72814;DHT22;60945;48.516;-2.768;2023-03-17T05:07:21;13.90;79.20
72814;DHT22;60945;48.516;-2.768;2023-03-17T05:09:47;13.80;79.10
72814;DHT22;60945;48.516;-2.768;2023-03-17T05:12:13;13.90;78.70
72814;DHT22;60945;48.516;-2.768;2023-03-17T05:14:39;13.70;79.50
72814;DHT22;60945;48.516;-2.768;2023-03-17T05:17:05;13.50;80.30
72814;DHT22;60945;48.516;-2.768;2023-03-17T05:19:31;13.50;80.30
72814;DHT22;60945;48.516;-2.768;2023-03-17T05:21:57;13.60;80.20
72814;DHT22;60945;48.516;-2.768;2023-03-17T05:24:23;13.70;80.10
72814;DHT22;60945;48.516;-2.768;2023-03-17T05:26:49;13.70;80.00
72814;DHT22;60945;48.516;-2.768;2023-03-17T05:29:15;13.80;79.30
72814;DHT22;60945;48.516;-2.768;2023-03-17T05:31:40;13.90;78.70
72814;DHT22;60945;48.516;-2.768;2023-03-17T05:34:07;13.80;79.30
72814;DHT22;60945;48.516;-2.768;2023-03-17T05:36:33;13.80;79.40
72814;DHT22;60945;48.516;-2.768;2023-03-17T05:38:59;13.40;80.40
72814;DHT22;60945;48.516;-2.768;2023-03-17T05:41:25;13.40;81.00
72814;DHT22;60945;48.516;-2.768;2023-03-17T05:43:50;13.50;80.30
72814;DHT22;60945;48.516;-2.768;2023-03-17T05:46:16;13.60;79.70
72814;DHT22;60945;48.516;-2.768;2023-03-17T05:48:43;13.80;79.20
72814;DHT22;60945;48.516;-2.768;2023-03-17T05:51:08;13.50;79.60
72814;DHT22;60945;48.516;-2.768;2023-03-17T05:53:34;13.50;80.30
72814;DHT22;60945;48.516;-2.768;2023-03-17T05:56:03;13.50;80.20
72814;DHT22;60945;48.516;-2.768;2023-03-17T05:58:28;13.60;79.80
72814;DHT22;60945;48.516;-2.768;2023-03-17T06:00:54;13.50;80.10
72814;DHT22;60945;48.516;-2.768;2023-03-17T06:03:20;13.70;79.40
72814;DHT22;60945;48.516;-2.768;2023-03-17T06:05:46;13.70;79.00
72814;DHT22;60945;48.516;-2.768;2023-03-17T06:08:12;13.90;78.20
72814;DHT22;60945;48.516;-2.768;2023-03-17T06:10:39;13.90;77.90
72814;DHT22;60945;48.516;-2.768;2023-03-17T06:13:06;14.00;77.50
72814;DHT22;60945;48.516;-2.768;2023-03-17T06:15:31;14.20;76.80
72814;DHT22;60945;48.516;-2.768;2023-03-17T06:17:57;14.10;76.70
72814;DHT22;60945;48.516;-2.768;2023-03-17T06:20:23;13.90;77.80
72814;DHT22;60945;48.516;-2.768;2023-03-17T06:22:49;13.70;78.80
72814;DHT22;60945;48.516;-2.768;2023-03-17T06:25:15;14.00;78.00
72814;DHT22;60945;48.516;-2.768;2023-03-17T06:27:44;14.10;77.20
72814;DHT22;60945;48.516;-2.768;2023-03-17T06:30:10;14.10;77.00
72814;DHT22;60945;48.516;-2.768;2023-03-17T06:32:38;14.20;76.70
72814;DHT22;60945;48.516;-2.768;2023-03-17T06:35:05;14.10;77.00
72814;DHT22;60945;48.516;-2.768;2023-03-17T06:37:31;13.90;77.80
72814;DHT22;60945;48.516;-2.768;2023-03-17T06:39:58;13.70;78.50
72814;DHT22;60945;48.516;-2.768;2023-03-17T06:42:25;13.60;78.70
72814;DHT22;60945;48.516;-2.768;2023-03-17T06:44:51;13.50;79.50
72814;DHT22;60945;48.516;-2.768;2023-03-17T06:47:17;13.60;79.40
72814;DHT22;60945;48.516;-2.768;2023-03-17T06:49:44;13.70;79.30
72814;DHT22;60945;48.516;-2.768;2023-03-17T06:52:10;13.90;78.40
72814;DHT22;60945;48.516;-2.768;2023-03-17T06:54:36;13.90;78.00
72814;DHT22;60945;48.516;-2.768;2023-03-17T06:57:01;13.80;78.60
72814;DHT22;60945;48.516;-2.768;2023-03-17T06:59:27;14.00;77.70
72814;DHT22;60945;48.516;-2.768;2023-03-17T07:01:55;13.90;77.80
72814;DHT22;60945;48.516;-2.768;2023-03-17T07:04:20;13.90;77.90
72814;DHT22;60945;48.516;-2.768;2023-03-17T07:06:46;14.00;77.60
72814;DHT22;60945;48.516;-2.768;2023-03-17T07:09:12;13.90;77.50
72814;DHT22;60945;48.516;-2.768;2023-03-17T07:11:37;13.90;77.50
72814;DHT22;60945;48.516;-2.768;2023-03-17T07:14:03;13.90;77.80
72814;DHT22;60945;48.516;-2.768;2023-03-17T07:16:29;13.70;78.40
72814;DHT22;60945;48.516;-2.768;2023-03-17T07:18:57;14.00;77.70
72814;DHT22;60945;48.516;-2.768;2023-03-17T07:21:24;14.10;76.80
72814;DHT22;60945;48.516;-2.768;2023-03-17T07:23:50;14.00;76.70
72814;DHT22;60945;48.516;-2.768;2023-03-17T07:26:15;13.80;77.90
72814;DHT22;60945;48.516;-2.768;2023-03-17T07:28:41;13.90;77.00
72814;DHT22;60945;48.516;-2.768;2023-03-17T07:31:07;14.10;77.20
72814;DHT22;60945;48.516;-2.768;2023-03-17T07:33:34;14.30;75.90
72814;DHT22;60945;48.516;-2.768;2023-03-17T07:36:00;14.40;75.40
72814;DHT22;60945;48.516;-2.768;2023-03-17T07:38:27;14.40;75.50
72814;DHT22;60945;48.516;-2.768;2023-03-17T07:40:53;14.20;76.30
72814;DHT22;60945;48.516;-2.768;2023-03-17T07:43:19;14.20;76.70
72814;DHT22;60945;48.516;-2.768;2023-03-17T07:45:45;14.30;76.20
72814;DHT22;60945;48.516;-2.768;2023-03-17T07:48:11;14.60;75.50
72814;DHT22;60945;48.516;-2.768;2023-03-17T07:50:37;14.80;74.00
72814;DHT22;60945;48.516;-2.768;2023-03-17T07:53:03;14.80;74.10
72814;DHT22;60945;48.516;-2.768;2023-03-17T07:55:30;15.20;72.80
72814;DHT22;60945;48.516;-2.768;2023-03-17T07:58:00;14.70;73.40
72814;DHT22;60945;48.516;-2.768;2023-03-17T08:00:26;14.90;73.30
72814;DHT22;60945;48.516;-2.768;2023-03-17T08:02:53;15.20;71.80
72814;DHT22;60945;48.516;-2.768;2023-03-17T08:05:21;14.80;73.80
72814;DHT22;60945;48.516;-2.768;2023-03-17T08:07:47;15.10;72.30
72814;DHT22;60945;48.516;-2.768;2023-03-17T08:10:13;15.40;71.20
72814;DHT22;60945;48.516;-2.768;2023-03-17T08:12:39;15.30;71.20
72814;DHT22;60945;48.516;-2.768;2023-03-17T08:15:05;14.50;73.40
72814;DHT22;60945;48.516;-2.768;2023-03-17T08:17:33;14.80;73.10
72814;DHT22;60945;48.516;-2.768;2023-03-17T08:19:59;15.00;71.90
72814;DHT22;60945;48.516;-2.768;2023-03-17T08:22:24;15.30;71.30
72814;DHT22;60945;48.516;-2.768;2023-03-17T08:24:50;15.00;71.50
72814;DHT22;60945;48.516;-2.768;2023-03-17T08:27:16;14.70;74.00
72814;DHT22;60945;48.516;-2.768;2023-03-17T08:29:43;15.10;72.50
72814;DHT22;60945;48.516;-2.768;2023-03-17T08:32:09;15.60;70.10
72814;DHT22;60945;48.516;-2.768;2023-03-17T08:34:36;15.80;69.50
72814;DHT22;60945;48.516;-2.768;2023-03-17T08:37:02;16.30;66.60
72814;DHT22;60945;48.516;-2.768;2023-03-17T08:39:27;16.30;67.10
72814;DHT22;60945;48.516;-2.768;2023-03-17T08:41:54;17.10;65.40
72814;DHT22;60945;48.516;-2.768;2023-03-17T08:44:21;18.00;62.10
72814;DHT22;60945;48.516;-2.768;2023-03-17T08:46:48;17.20;64.40
72814;DHT22;60945;48.516;-2.768;2023-03-17T08:49:15;17.70;63.20
72814;DHT22;60945;48.516;-2.768;2023-03-17T08:51:41;17.70;60.30
72814;DHT22;60945;48.516;-2.768;2023-03-17T08:54:08;16.80;64.40
72814;DHT22;60945;48.516;-2.768;2023-03-17T08:56:34;17.80;60.90
72814;DHT22;60945;48.516;-2.768;2023-03-17T08:59:02;18.00;60.40
72814;DHT22;60945;48.516;-2.768;2023-03-17T09:01:29;18.70;57.80
72814;DHT22;60945;48.516;-2.768;2023-03-17T09:03:55;17.50;60.80
72814;DHT22;60945;48.516;-2.768;2023-03-17T09:06:22;18.80;57.10
72814;DHT22;60945;48.516;-2.768;2023-03-17T09:08:48;19.30;56.00
72814;DHT22;60945;48.516;-2.768;2023-03-17T09:11:21;19.60;54.00
72814;DHT22;60945;48.516;-2.768;2023-03-17T09:13:48;19.70;55.80
72814;DHT22;60945;48.516;-2.768;2023-03-17T09:16:15;21.30;50.00
72814;DHT22;60945;48.516;-2.768;2023-03-17T09:18:41;20.50;51.50
72814;DHT22;60945;48.516;-2.768;2023-03-17T09:21:08;19.40;54.40
72814;DHT22;60945;48.516;-2.768;2023-03-17T09:23:35;19.30;54.10
72814;DHT22;60945;48.516;-2.768;2023-03-17T09:26:00;19.90;52.90
72814;DHT22;60945;48.516;-2.768;2023-03-17T09:28:27;21.50;49.20
72814;DHT22;60945;48.516;-2.768;2023-03-17T09:30:57;23.10;46.90
72814;DHT22;60945;48.516;-2.768;2023-03-17T09:33:23;22.60;46.60
72814;DHT22;60945;48.516;-2.768;2023-03-17T09:35:51;22.40;48.10
72814;DHT22;60945;48.516;-2.768;2023-03-17T09:38:17;19.90;49.90
72814;DHT22;60945;48.516;-2.768;2023-03-17T09:40:48;18.70;54.10
72814;DHT22;60945;48.516;-2.768;2023-03-17T09:43:32;19.00;52.50
72814;DHT22;60945;48.516;-2.768;2023-03-17T09:48:52;18.40;53.90
72814;DHT22;60945;48.516;-2.768;2023-03-17T09:51:22;17.80;55.10
72814;DHT22;60945;48.516;-2.768;2023-03-17T09:54:02;16.80;58.10
72814;DHT22;60945;48.516;-2.768;2023-03-17T09:56:31;16.90;58.30
72814;DHT22;60945;48.516;-2.768;2023-03-17T09:59:06;16.80;57.70
72814;DHT22;60945;48.516;-2.768;2023-03-17T10:01:38;19.60;51.30
72814;DHT22;60945;48.516;-2.768;2023-03-17T10:04:08;23.20;45.10
72814;DHT22;60945;48.516;-2.768;2023-03-17T10:06:37;21.00;46.20
72814;DHT22;60945;48.516;-2.768;2023-03-17T10:12:00;18.90;51.50
72814;DHT22;60945;48.516;-2.768;2023-03-17T10:17:15;18.30;52.90
72814;DHT22;60945;48.516;-2.768;2023-03-17T10:19:54;19.10;51.70
72814;DHT22;60945;48.516;-2.768;2023-03-17T10:22:37;18.80;51.20
72814;DHT22;60945;48.516;-2.768;2023-03-17T10:25:29;17.70;54.60
72814;DHT22;60945;48.516;-2.768;2023-03-17T10:28:25;17.20;55.50
72814;DHT22;60945;48.516;-2.768;2023-03-17T10:30:56;16.80;58.40
72814;DHT22;60945;48.516;-2.768;2023-03-17T10:33:25;17.80;56.90
72814;DHT22;60945;48.516;-2.768;2023-03-17T10:35:52;17.00;59.00
72814;DHT22;60945;48.516;-2.768;2023-03-17T10:38:20;17.60;57.90
72814;DHT22;60945;48.516;-2.768;2023-03-17T10:41:00;17.60;58.10
72814;DHT22;60945;48.516;-2.768;2023-03-17T10:43:40;17.40;57.50
72814;DHT22;60945;48.516;-2.768;2023-03-17T10:46:17;17.00;57.90
72814;DHT22;60945;48.516;-2.768;2023-03-17T10:51:35;16.60;58.70
72814;DHT22;60945;48.516;-2.768;2023-03-17T10:54:07;16.60;59.30
72814;DHT22;60945;48.516;-2.768;2023-03-17T10:56:39;16.90;59.00
72814;DHT22;60945;48.516;-2.768;2023-03-17T10:59:17;17.20;57.60
72814;DHT22;60945;48.516;-2.768;2023-03-17T11:01:58;17.70;55.90
72814;DHT22;60945;48.516;-2.768;2023-03-17T11:04:38;18.40;54.30
72814;DHT22;60945;48.516;-2.768;2023-03-17T11:07:20;19.00;53.00
72814;DHT22;60945;48.516;-2.768;2023-03-17T11:09:57;17.90;55.60
72814;DHT22;60945;48.516;-2.768;2023-03-17T11:12:26;18.00;56.30
72814;DHT22;60945;48.516;-2.768;2023-03-17T11:15:01;17.80;56.50
72814;DHT22;60945;48.516;-2.768;2023-03-17T11:20:36;17.00;59.00
72814;DHT22;60945;48.516;-2.768;2023-03-17T11:23:25;17.30;58.40
72814;DHT22;60945;48.516;-2.768;2023-03-17T11:31:50;17.80;58.30
72814;DHT22;60945;48.516;-2.768;2023-03-17T11:47:37;19.50;52.60
72814;DHT22;60945;48.516;-2.768;2023-03-17T11:50:22;19.50;53.30
72814;DHT22;60945;48.516;-2.768;2023-03-17T11:55:55;19.50;50.70
72814;DHT22;60945;48.516;-2.768;2023-03-17T12:00:56;18.40;52.40
72814;DHT22;60945;48.516;-2.768;2023-03-17T12:03:48;17.20;55.80
72814;DHT22;60945;48.516;-2.768;2023-03-17T12:06:20;17.70;56.30
72814;DHT22;60945;48.516;-2.768;2023-03-17T12:08:58;17.90;54.30
72814;DHT22;60945;48.516;-2.768;2023-03-17T12:11:30;17.20;55.20
72814;DHT22;60945;48.516;-2.768;2023-03-17T12:14:04;17.20;56.10
72814;DHT22;60945;48.516;-2.768;2023-03-17T12:16:36;17.90;53.90
72814;DHT22;60945;48.516;-2.768;2023-03-17T12:21:52;17.80;55.00
72814;DHT22;60945;48.516;-2.768;2023-03-17T12:29:56;17.40;55.40
72814;DHT22;60945;48.516;-2.768;2023-03-17T12:37:52;17.20;55.00
72814;DHT22;60945;48.516;-2.768;2023-03-17T12:40:26;16.90;54.70
72814;DHT22;60945;48.516;-2.768;2023-03-17T12:42:59;17.30;53.80
72814;DHT22;60945;48.516;-2.768;2023-03-17T12:50:34;18.50;51.00
72814;DHT22;60945;48.516;-2.768;2023-03-17T12:55:40;18.30;52.40
72814;DHT22;60945;48.516;-2.768;2023-03-17T13:01:13;18.50;51.00
72814;DHT22;60945;48.516;-2.768;2023-03-17T13:03:57;17.80;51.80
72814;DHT22;60945;48.516;-2.768;2023-03-17T13:06:24;17.60;52.70
72814;DHT22;60945;48.516;-2.768;2023-03-17T13:08:52;18.00;52.50
72814;DHT22;60945;48.516;-2.768;2023-03-17T13:22:37;18.20;50.80
72814;DHT22;60945;48.516;-2.768;2023-03-17T13:30:40;18.50;50.70
72814;DHT22;60945;48.516;-2.768;2023-03-17T13:49:50;17.70;54.80
72814;DHT22;60945;48.516;-2.768;2023-03-17T13:52:47;20.00;52.80
72814;DHT22;60945;48.516;-2.768;2023-03-17T13:57:42;24.10;39.20
72814;DHT22;60945;48.516;-2.768;2023-03-17T14:00:24;23.00;41.60
72814;DHT22;60945;48.516;-2.768;2023-03-17T14:03:00;27.80;35.30
72814;DHT22;60945;48.516;-2.768;2023-03-17T14:05:31;29.00;31.90
72814;DHT22;60945;48.516;-2.768;2023-03-17T14:08:02;29.20;31.90
72814;DHT22;60945;48.516;-2.768;2023-03-17T14:10:31;31.30;29.10
72814;DHT22;60945;48.516;-2.768;2023-03-17T14:13:02;31.30;29.80
72814;DHT22;60945;48.516;-2.768;2023-03-17T14:15:57;31.70;27.70
72814;DHT22;60945;48.516;-2.768;2023-03-17T14:18:33;32.10;27.50
72814;DHT22;60945;48.516;-2.768;2023-03-17T14:21:02;27.50;34.00
72814;DHT22;60945;48.516;-2.768;2023-03-17T14:23:31;31.30;29.20
72814;DHT22;60945;48.516;-2.768;2023-03-17T14:25:58;31.10;27.80
72814;DHT22;60945;48.516;-2.768;2023-03-17T14:28:34;28.80;31.40
72814;DHT22;60945;48.516;-2.768;2023-03-17T14:31:03;31.20;28.90
72814;DHT22;60945;48.516;-2.768;2023-03-17T14:33:31;31.70;27.50
72814;DHT22;60945;48.516;-2.768;2023-03-17T14:36:01;29.20;29.60
72814;DHT22;60945;48.516;-2.768;2023-03-17T14:38:33;28.40;31.40
72814;DHT22;60945;48.516;-2.768;2023-03-17T14:41:01;26.50;33.40
72814;DHT22;60945;48.516;-2.768;2023-03-17T14:43:29;23.20;39.10
72814;DHT22;60945;48.516;-2.768;2023-03-17T14:46:03;22.10;40.80
72814;DHT22;60945;48.516;-2.768;2023-03-17T14:48:37;21.60;43.10
72814;DHT22;60945;48.516;-2.768;2023-03-17T14:51:06;22.80;38.90
72814;DHT22;60945;48.516;-2.768;2023-03-17T14:53:39;20.90;42.30
72814;DHT22;60945;48.516;-2.768;2023-03-17T14:56:07;20.80;43.50
72814;DHT22;60945;48.516;-2.768;2023-03-17T14:58:44;20.10;44.90
72814;DHT22;60945;48.516;-2.768;2023-03-17T15:01:32;18.80;48.40
72814;DHT22;60945;48.516;-2.768;2023-03-17T15:06:31;19.10;47.90
72814;DHT22;60945;48.516;-2.768;2023-03-17T15:09:01;19.50;48.20
72814;DHT22;60945;48.516;-2.768;2023-03-17T15:11:37;19.20;48.40
72814;DHT22;60945;48.516;-2.768;2023-03-17T15:14:14;18.30;50.20
72814;DHT22;60945;48.516;-2.768;2023-03-17T15:16:45;19.70;46.60
72814;DHT22;60945;48.516;-2.768;2023-03-17T15:19:26;20.20;46.00
72814;DHT22;60945;48.516;-2.768;2023-03-17T15:21:53;19.90;46.90
72814;DHT22;60945;48.516;-2.768;2023-03-17T15:24:40;19.70;46.90
72814;DHT22;60945;48.516;-2.768;2023-03-17T15:27:16;18.80;50.00
72814;DHT22;60945;48.516;-2.768;2023-03-17T15:29:42;17.90;51.50
72814;DHT22;60945;48.516;-2.768;2023-03-17T15:32:13;18.00;52.20
72814;DHT22;60945;48.516;-2.768;2023-03-17T15:34:40;18.20;52.00
72814;DHT22;60945;48.516;-2.768;2023-03-17T15:37:16;18.80;50.70
72814;DHT22;60945;48.516;-2.768;2023-03-17T15:39:42;19.30;49.80
72814;DHT22;60945;48.516;-2.768;2023-03-17T15:42:08;18.90;51.20
72814;DHT22;60945;48.516;-2.768;2023-03-17T15:44:34;19.10;50.30
72814;DHT22;60945;48.516;-2.768;2023-03-17T15:46:59;18.60;51.90
72814;DHT22;60945;48.516;-2.768;2023-03-17T15:49:28;18.50;52.20
72814;DHT22;60945;48.516;-2.768;2023-03-17T15:51:54;18.00;53.80
72814;DHT22;60945;48.516;-2.768;2023-03-17T15:54:20;17.50;55.50
72814;DHT22;60945;48.516;-2.768;2023-03-17T15:56:46;17.30;56.20
72814;DHT22;60945;48.516;-2.768;2023-03-17T15:59:12;16.50;58.80
72814;DHT22;60945;48.516;-2.768;2023-03-17T16:01:38;16.80;65.00
72814;DHT22;60945;48.516;-2.768;2023-03-17T16:04:04;17.20;57.80
72814;DHT22;60945;48.516;-2.768;2023-03-17T16:06:32;17.40;59.60
72814;DHT22;60945;48.516;-2.768;2023-03-17T16:08:58;18.70;55.20
72814;DHT22;60945;48.516;-2.768;2023-03-17T16:11:25;17.90;55.20
72814;DHT22;60945;48.516;-2.768;2023-03-17T16:13:54;17.30;57.60
72814;DHT22;60945;48.516;-2.768;2023-03-17T16:16:28;16.70;58.90
72814;DHT22;60945;48.516;-2.768;2023-03-17T16:18:54;16.60;59.90
72814;DHT22;60945;48.516;-2.768;2023-03-17T16:21:20;16.70;60.60
72814;DHT22;60945;48.516;-2.768;2023-03-17T16:23:47;16.00;64.70
72814;DHT22;60945;48.516;-2.768;2023-03-17T16:26:13;16.70;62.80
72814;DHT22;60945;48.516;-2.768;2023-03-17T16:28:39;17.00;62.10
72814;DHT22;60945;48.516;-2.768;2023-03-17T16:31:16;17.20;61.20
72814;DHT22;60945;48.516;-2.768;2023-03-17T16:33:42;16.50;62.20
72814;DHT22;60945;48.516;-2.768;2023-03-17T16:36:13;15.90;62.80
72814;DHT22;60945;48.516;-2.768;2023-03-17T16:38:40;15.80;63.20
72814;DHT22;60945;48.516;-2.768;2023-03-17T16:41:08;15.70;63.20
72814;DHT22;60945;48.516;-2.768;2023-03-17T16:43:39;15.80;63.70
72814;DHT22;60945;48.516;-2.768;2023-03-17T16:46:08;16.10;63.50
72814;DHT22;60945;48.516;-2.768;2023-03-17T16:48:34;15.90;64.40
72814;DHT22;60945;48.516;-2.768;2023-03-17T16:51:00;15.70;65.00
72814;DHT22;60945;48.516;-2.768;2023-03-17T16:53:26;15.90;64.90
72814;DHT22;60945;48.516;-2.768;2023-03-17T16:55:53;15.70;64.90
72814;DHT22;60945;48.516;-2.768;2023-03-17T16:58:20;15.30;65.70
72814;DHT22;60945;48.516;-2.768;2023-03-17T17:00:48;15.40;67.40
72814;DHT22;60945;48.516;-2.768;2023-03-17T17:03:15;15.10;67.40
72814;DHT22;60945;48.516;-2.768;2023-03-17T17:05:41;15.10;67.90
72814;DHT22;60945;48.516;-2.768;2023-03-17T17:08:10;15.40;66.10
72814;DHT22;60945;48.516;-2.768;2023-03-17T17:10:37;15.30;67.70
72814;DHT22;60945;48.516;-2.768;2023-03-17T17:13:04;15.00;69.60
72814;DHT22;60945;48.516;-2.768;2023-03-17T17:15:30;14.90;69.70